sensor_id;sensor_type;location;lat;lon;timestamp;P1;durP1;ratioP1;P2;durP2;ratioP2
66425;SDS011;53237;46.158;14.604;2024-03-22T00:01:57;3.42;;;2.50;;
66425;SDS011;53237;46.158;14.604;2024-03-22T00:04:23;4.50;;;2.83;;
66425;SDS011;53237;46.158;14.604;2024-03-22T00:06:49;3.65;;;2.47;;
66425;SDS011;53237;46.158;14.604;2024-03-22T00:09:15;3.47;;;2.40;;
66425;SDS011;53237;46.158;14.604;2024-03-22T00:11:42;3.38;;;2.45;;
66425;SDS011;53237;46.158;14.604;2024-03-22T00:14:09;3.83;;;2.60;;
66425;SDS011;53237;46.158;14.604;2024-03-22T00:16:35;3.03;;;2.40;;
66425;SDS011;53237;46.158;14.604;2024-03-22T00:19:01;4.93;;;4.43;;
66425;SDS011;53237;46.158;14.604;2024-03-22T00:21:27;5.38;;;3.03;;
66425;SDS011;53237;46.158;14.604;2024-03-22T00:23:54;4.80;;;3.00;;
66425;SDS011;53237;46.158;14.604;2024-03-22T00:26:20;3.80;;;2.90;;
66425;SDS011;53237;46.158;14.604;2024-03-22T00:28:46;5.32;;;3.65;;
66425;SDS011;53237;46.158;14.604;2024-03-22T00:31:13;3.10;;;2.67;;
66425;SDS011;53237;46.158;14.604;2024-03-22T00:33:39;3.38;;;2.55;;
66425;SDS011;53237;46.158;14.604;2024-03-22T00:36:05;2.95;;;2.47;;
66425;SDS011;53237;46.158;14.604;2024-03-22T00:38:31;4.20;;;3.13;;
66425;SDS011;53237;46.158;14.604;2024-03-22T00:40:57;4.00;;;2.88;;
66425;SDS011;53237;46.158;14.604;2024-03-22T00:43:23;4.90;;;2.70;;
66425;SDS011;53237;46.158;14.604;2024-03-22T00:45:49;4.32;;;3.20;;
66425;SDS011;53237;46.158;14.604;2024-03-22T00:48:15;5.07;;;2.80;;
66425;SDS011;53237;46.158;14.604;2024-03-22T00:50:41;4.45;;;3.40;;
66425;SDS011;53237;46.158;14.604;2024-03-22T00:53:08;4.35;;;3.08;;
66425;SDS011;53237;46.158;14.604;2024-03-22T00:55:35;4.43;;;3.17;;
66425;SDS011;53237;46.158;14.604;2024-03-22T00:58:01;4.88;;;3.33;;
66425;SDS011;53237;46.158;14.604;2024-03-22T01:00:27;4.65;;;2.95;;
66425;SDS011;53237;46.158;14.604;2024-03-22T01:02:53;4.15;;;3.08;;
66425;SDS011;53237;46.158;14.604;2024-03-22T01:05:19;4.28;;;3.15;;
66425;SDS011;53237;46.158;14.604;2024-03-22T01:07:45;6.05;;;3.53;;
66425;SDS011;53237;46.158;14.604;2024-03-22T01:10:11;4.47;;;3.00;;
66425;SDS011;53237;46.158;14.604;2024-03-22T01:12:38;5.90;;;3.30;;
66425;SDS011;53237;46.158;14.604;2024-03-22T01:15:04;4.45;;;3.13;;
66425;SDS011;53237;46.158;14.604;2024-03-22T01:17:31;5.70;;;3.20;;
66425;SDS011;53237;46.158;14.604;2024-03-22T01:19:57;4.15;;;2.85;;
66425;SDS011;53237;46.158;14.604;2024-03-22T01:22:23;3.28;;;2.70;;
66425;SDS011;53237;46.158;14.604;2024-03-22T01:24:49;4.18;;;3.03;;
66425;SDS011;53237;46.158;14.604;2024-03-22T01:27:15;5.15;;;3.22;;
66425;SDS011;53237;46.158;14.604;2024-03-22T01:29:41;4.15;;;2.78;;
66425;SDS011;53237;46.158;14.604;2024-03-22T01:32:07;4.47;;;2.92;;
66425;SDS011;53237;46.158;14.604;2024-03-22T01:34:33;3.65;;;2.70;;
66425;SDS011;53237;46.158;14.604;2024-03-22T01:36:59;4.20;;;3.10;;
66425;SDS011;53237;46.158;14.604;2024-03-22T01:39:25;4.93;;;3.28;;
66425;SDS011;53237;46.158;14.604;2024-03-22T01:41:51;4.70;;;3.25;;
66425;SDS011;53237;46.158;14.604;2024-03-22T01:44:18;5.10;;;3.40;;
66425;SDS011;53237;46.158;14.604;2024-03-22T01:46:44;3.63;;;2.95;;
66425;SDS011;53237;46.158;14.604;2024-03-22T01:49:11;4.28;;;3.00;;
66425;SDS011;53237;46.158;14.604;2024-03-22T01:51:40;5.03;;;3.38;;
66425;SDS011;53237;46.158;14.604;2024-03-22T01:54:08;4.82;;;3.40;;
66425;SDS011;53237;46.158;14.604;2024-03-22T01:56:37;4.10;;;3.10;;
66425;SDS011;53237;46.158;14.604;2024-03-22T01:59:06;3.70;;;2.97;;
66425;SDS011;53237;46.158;14.604;2024-03-22T02:01:33;5.13;;;3.33;;
66425;SDS011;53237;46.158;14.604;2024-03-22T02:04:00;4.90;;;3.58;;
66425;SDS011;53237;46.158;14.604;2024-03-22T02:06:26;5.25;;;3.20;;
66425;SDS011;53237;46.158;14.604;2024-03-22T02:08:52;4.68;;;3.70;;
66425;SDS011;53237;46.158;14.604;2024-03-22T02:11:18;4.68;;;3.40;;
66425;SDS011;53237;46.158;14.604;2024-03-22T02:13:44;5.00;;;3.40;;
66425;SDS011;53237;46.158;14.604;2024-03-22T02:16:10;5.38;;;3.65;;
66425;SDS011;53237;46.158;14.604;2024-03-22T02:18:36;4.63;;;3.42;;
66425;SDS011;53237;46.158;14.604;2024-03-22T02:21:02;4.20;;;3.05;;
66425;SDS011;53237;46.158;14.604;2024-03-22T02:23:31;4.32;;;2.95;;
66425;SDS011;53237;46.158;14.604;2024-03-22T02:25:57;4.50;;;3.38;;
66425;SDS011;53237;46.158;14.604;2024-03-22T02:28:24;3.97;;;2.97;;
66425;SDS011;53237;46.158;14.604;2024-03-22T02:30:49;4.75;;;3.28;;
66425;SDS011;53237;46.158;14.604;2024-03-22T02:33:16;5.78;;;3.63;;
66425;SDS011;53237;46.158;14.604;2024-03-22T02:35:42;5.93;;;4.30;;
66425;SDS011;53237;46.158;14.604;2024-03-22T02:38:08;6.35;;;3.33;;
66425;SDS011;53237;46.158;14.604;2024-03-22T02:40:34;5.18;;;3.60;;
66425;SDS011;53237;46.158;14.604;2024-03-22T02:43:00;6.32;;;5.78;;
66425;SDS011;53237;46.158;14.604;2024-03-22T02:45:26;4.60;;;2.97;;
66425;SDS011;53237;46.158;14.604;2024-03-22T02:47:52;3.22;;;2.50;;
66425;SDS011;53237;46.158;14.604;2024-03-22T02:50:18;5.35;;;3.55;;
66425;SDS011;53237;46.158;14.604;2024-03-22T02:52:44;4.57;;;3.75;;
66425;SDS011;53237;46.158;14.604;2024-03-22T02:55:10;4.13;;;2.83;;
66425;SDS011;53237;46.158;14.604;2024-03-22T02:57:36;4.45;;;3.10;;
66425;SDS011;53237;46.158;14.604;2024-03-22T03:00:02;5.30;;;3.13;;
66425;SDS011;53237;46.158;14.604;2024-03-22T03:02:30;4.30;;;3.00;;
66425;SDS011;53237;46.158;14.604;2024-03-22T03:04:56;3.20;;;2.58;;
66425;SDS011;53237;46.158;14.604;2024-03-22T03:07:22;5.07;;;3.25;;
66425;SDS011;53237;46.158;14.604;2024-03-22T03:09:48;3.78;;;2.83;;
66425;SDS011;53237;46.158;14.604;2024-03-22T03:12:14;5.53;;;2.95;;
66425;SDS011;53237;46.158;14.604;2024-03-22T03:14:40;4.38;;;2.88;;
66425;SDS011;53237;46.158;14.604;2024-03-22T03:17:07;3.00;;;2.30;;
66425;SDS011;53237;46.158;14.604;2024-03-22T03:19:33;3.72;;;2.45;;
66425;SDS011;53237;46.158;14.604;2024-03-22T03:21:59;3.38;;;2.55;;
66425;SDS011;53237;46.158;14.604;2024-03-22T03:24:25;3.15;;;2.60;;
66425;SDS011;53237;46.158;14.604;2024-03-22T03:26:51;4.82;;;2.90;;
66425;SDS011;53237;46.158;14.604;2024-03-22T03:29:17;4.18;;;2.88;;
66425;SDS011;53237;46.158;14.604;2024-03-22T03:31:43;3.63;;;2.38;;
66425;SDS011;53237;46.158;14.604;2024-03-22T03:34:09;3.60;;;2.75;;
66425;SDS011;53237;46.158;14.604;2024-03-22T03:36:35;3.42;;;2.55;;
66425;SDS011;53237;46.158;14.604;2024-03-22T03:39:01;3.10;;;2.80;;
66425;SDS011;53237;46.158;14.604;2024-03-22T03:41:27;3.05;;;2.42;;
66425;SDS011;53237;46.158;14.604;2024-03-22T03:43:53;4.47;;;2.63;;
66425;SDS011;53237;46.158;14.604;2024-03-22T03:46:19;3.70;;;2.83;;
66425;SDS011;53237;46.158;14.604;2024-03-22T03:48:45;4.07;;;2.70;;
66425;SDS011;53237;46.158;14.604;2024-03-22T03:51:11;4.10;;;2.80;;
66425;SDS011;53237;46.158;14.604;2024-03-22T03:53:37;3.92;;;2.90;;
66425;SDS011;53237;46.158;14.604;2024-03-22T03:56:03;3.88;;;2.85;;
66425;SDS011;53237;46.158;14.604;2024-03-22T03:58:29;3.67;;;3.38;;
66425;SDS011;53237;46.158;14.604;2024-03-22T04:00:55;4.07;;;2.95;;
66425;SDS011;53237;46.158;14.604;2024-03-22T04:03:22;4.50;;;3.10;;
66425;SDS011;53237;46.158;14.604;2024-03-22T04:05:55;3.88;;;2.92;;
66425;SDS011;53237;46.158;14.604;2024-03-22T04:08:22;4.13;;;3.00;;
66425;SDS011;53237;46.158;14.604;2024-03-22T04:10:54;4.03;;;2.70;;
66425;SDS011;53237;46.158;14.604;2024-03-22T04:13:24;4.43;;;3.05;;
66425;SDS011;53237;46.158;14.604;2024-03-22T04:15:50;3.47;;;3.15;;
66425;SDS011;53237;46.158;14.604;2024-03-22T04:18:16;5.70;;;2.88;;
66425;SDS011;53237;46.158;14.604;2024-03-22T04:20:42;3.65;;;2.55;;
66425;SDS011;53237;46.158;14.604;2024-03-22T04:23:09;3.85;;;2.40;;
66425;SDS011;53237;46.158;14.604;2024-03-22T04:25:35;4.22;;;2.95;;
66425;SDS011;53237;46.158;14.604;2024-03-22T04:28:01;3.65;;;3.35;;
66425;SDS011;53237;46.158;14.604;2024-03-22T04:30:27;5.97;;;3.65;;
66425;SDS011;53237;46.158;14.604;2024-03-22T04:32:53;5.18;;;3.72;;
66425;SDS011;53237;46.158;14.604;2024-03-22T04:35:18;4.75;;;3.53;;
66425;SDS011;53237;46.158;14.604;2024-03-22T04:37:45;5.25;;;3.40;;
66425;SDS011;53237;46.158;14.604;2024-03-22T04:40:11;5.97;;;4.20;;
66425;SDS011;53237;46.158;14.604;2024-03-22T04:42:37;4.53;;;3.00;;
66425;SDS011;53237;46.158;14.604;2024-03-22T04:45:03;4.95;;;3.17;;
66425;SDS011;53237;46.158;14.604;2024-03-22T04:47:29;4.18;;;3.20;;
66425;SDS011;53237;46.158;14.604;2024-03-22T04:49:55;4.68;;;3.20;;
66425;SDS011;53237;46.158;14.604;2024-03-22T04:52:21;4.75;;;2.72;;
66425;SDS011;53237;46.158;14.604;2024-03-22T04:54:47;3.72;;;3.15;;
66425;SDS011;53237;46.158;14.604;2024-03-22T04:57:14;4.20;;;2.85;;
66425;SDS011;53237;46.158;14.604;2024-03-22T04:59:40;4.20;;;3.20;;
66425;SDS011;53237;46.158;14.604;2024-03-22T05:02:06;3.55;;;2.53;;
66425;SDS011;53237;46.158;14.604;2024-03-22T05:04:32;4.25;;;2.85;;
66425;SDS011;53237;46.158;14.604;2024-03-22T05:06:58;4.13;;;2.70;;
66425;SDS011;53237;46.158;14.604;2024-03-22T05:09:24;4.50;;;3.17;;
66425;SDS011;53237;46.158;14.604;2024-03-22T05:11:50;4.25;;;2.88;;
66425;SDS011;53237;46.158;14.604;2024-03-22T05:14:17;3.05;;;2.75;;
66425;SDS011;53237;46.158;14.604;2024-03-22T05:16:43;4.38;;;3.13;;
66425;SDS011;53237;46.158;14.604;2024-03-22T05:19:09;4.22;;;3.10;;
66425;SDS011;53237;46.158;14.604;2024-03-22T05:21:36;4.00;;;2.80;;
66425;SDS011;53237;46.158;14.604;2024-03-22T05:24:02;3.85;;;3.20;;
66425;SDS011;53237;46.158;14.604;2024-03-22T05:26:28;4.03;;;2.95;;
66425;SDS011;53237;46.158;14.604;2024-03-22T05:28:57;5.97;;;3.35;;
66425;SDS011;53237;46.158;14.604;2024-03-22T05:31:23;5.05;;;3.30;;
66425;SDS011;53237;46.158;14.604;2024-03-22T05:33:49;6.63;;;3.60;;
66425;SDS011;53237;46.158;14.604;2024-03-22T05:36:15;4.05;;;3.20;;
66425;SDS011;53237;46.158;14.604;2024-03-22T05:38:41;5.18;;;3.75;;
66425;SDS011;53237;46.158;14.604;2024-03-22T05:41:07;4.65;;;3.17;;
66425;SDS011;53237;46.158;14.604;2024-03-22T05:43:33;6.45;;;3.85;;
66425;SDS011;53237;46.158;14.604;2024-03-22T05:45:59;5.35;;;3.38;;
66425;SDS011;53237;46.158;14.604;2024-03-22T05:48:25;5.97;;;5.10;;
66425;SDS011;53237;46.158;14.604;2024-03-22T05:50:51;5.07;;;3.38;;
66425;SDS011;53237;46.158;14.604;2024-03-22T05:53:17;6.85;;;3.92;;
66425;SDS011;53237;46.158;14.604;2024-03-22T05:55:43;5.57;;;3.72;;
66425;SDS011;53237;46.158;14.604;2024-03-22T05:58:09;4.93;;;3.70;;
66425;SDS011;53237;46.158;14.604;2024-03-22T06:00:35;8.23;;;4.20;;
66425;SDS011;53237;46.158;14.604;2024-03-22T06:03:02;5.57;;;3.33;;
66425;SDS011;53237;46.158;14.604;2024-03-22T06:05:28;5.88;;;3.80;;
66425;SDS011;53237;46.158;14.604;2024-03-22T06:07:54;6.90;;;3.72;;
66425;SDS011;53237;46.158;14.604;2024-03-22T06:10:20;5.47;;;3.78;;
66425;SDS011;53237;46.158;14.604;2024-03-22T06:12:47;6.68;;;3.97;;
66425;SDS011;53237;46.158;14.604;2024-03-22T06:15:13;6.57;;;3.78;;
66425;SDS011;53237;46.158;14.604;2024-03-22T06:17:39;7.43;;;4.45;;
66425;SDS011;53237;46.158;14.604;2024-03-22T06:20:07;6.07;;;4.38;;
66425;SDS011;53237;46.158;14.604;2024-03-22T06:22:34;6.43;;;3.92;;
66425;SDS011;53237;46.158;14.604;2024-03-22T06:25:01;7.82;;;3.97;;
66425;SDS011;53237;46.158;14.604;2024-03-22T06:27:27;6.65;;;3.80;;
66425;SDS011;53237;46.158;14.604;2024-03-22T06:29:53;5.55;;;3.97;;
66425;SDS011;53237;46.158;14.604;2024-03-22T06:32:19;7.40;;;4.65;;
66425;SDS011;53237;46.158;14.604;2024-03-22T06:34:45;6.75;;;4.05;;
66425;SDS011;53237;46.158;14.604;2024-03-22T06:37:11;6.18;;;4.22;;
66425;SDS011;53237;46.158;14.604;2024-03-22T06:39:37;5.95;;;5.03;;
66425;SDS011;53237;46.158;14.604;2024-03-22T06:42:03;6.18;;;3.88;;
66425;SDS011;53237;46.158;14.604;2024-03-22T06:44:29;7.78;;;7.07;;
66425;SDS011;53237;46.158;14.604;2024-03-22T06:46:56;6.88;;;3.95;;
66425;SDS011;53237;46.158;14.604;2024-03-22T06:49:22;5.85;;;3.85;;
66425;SDS011;53237;46.158;14.604;2024-03-22T06:51:48;6.97;;;6.38;;
66425;SDS011;53237;46.158;14.604;2024-03-22T06:54:14;5.15;;;3.53;;
66425;SDS011;53237;46.158;14.604;2024-03-22T06:56:39;5.68;;;3.65;;
66425;SDS011;53237;46.158;14.604;2024-03-22T06:59:06;4.95;;;3.60;;
66425;SDS011;53237;46.158;14.604;2024-03-22T07:01:32;6.00;;;4.05;;
66425;SDS011;53237;46.158;14.604;2024-03-22T07:03:58;7.47;;;6.78;;
66425;SDS011;53237;46.158;14.604;2024-03-22T07:06:24;5.50;;;3.58;;
66425;SDS011;53237;46.158;14.604;2024-03-22T07:08:50;5.38;;;3.92;;
66425;SDS011;53237;46.158;14.604;2024-03-22T07:11:15;7.15;;;3.83;;
66425;SDS011;53237;46.158;14.604;2024-03-22T07:13:41;6.55;;;3.97;;
66425;SDS011;53237;46.158;14.604;2024-03-22T07:16:07;7.20;;;6.50;;
66425;SDS011;53237;46.158;14.604;2024-03-22T07:18:33;7.07;;;4.43;;
66425;SDS011;53237;46.158;14.604;2024-03-22T07:20:59;6.60;;;4.25;;
66425;SDS011;53237;46.158;14.604;2024-03-22T07:23:27;6.07;;;4.30;;
66425;SDS011;53237;46.158;14.604;2024-03-22T07:25:53;10.52;;;9.52;;
66425;SDS011;53237;46.158;14.604;2024-03-22T07:28:19;6.30;;;4.18;;
66425;SDS011;53237;46.158;14.604;2024-03-22T07:30:46;6.55;;;4.30;;
66425;SDS011;53237;46.158;14.604;2024-03-22T07:33:12;8.50;;;5.03;;
66425;SDS011;53237;46.158;14.604;2024-03-22T07:35:41;12.90;;;6.95;;
66425;SDS011;53237;46.158;14.604;2024-03-22T07:38:07;8.77;;;4.90;;
66425;SDS011;53237;46.158;14.604;2024-03-22T07:40:33;16.60;;;9.38;;
66425;SDS011;53237;46.158;14.604;2024-03-22T07:42:59;12.23;;;8.23;;
66425;SDS011;53237;46.158;14.604;2024-03-22T07:45:30;8.43;;;5.05;;
66425;SDS011;53237;46.158;14.604;2024-03-22T07:47:56;9.55;;;6.07;;
66425;SDS011;53237;46.158;14.604;2024-03-22T07:50:22;9.10;;;5.70;;
66425;SDS011;53237;46.158;14.604;2024-03-22T07:52:48;9.85;;;5.47;;
66425;SDS011;53237;46.158;14.604;2024-03-22T07:55:15;9.75;;;5.47;;
66425;SDS011;53237;46.158;14.604;2024-03-22T07:57:41;5.82;;;4.30;;
66425;SDS011;53237;46.158;14.604;2024-03-22T08:00:07;6.78;;;5.97;;
66425;SDS011;53237;46.158;14.604;2024-03-22T08:02:34;9.18;;;8.38;;
66425;SDS011;53237;46.158;14.604;2024-03-22T08:05:00;15.30;;;7.10;;
66425;SDS011;53237;46.158;14.604;2024-03-22T08:07:26;12.60;;;7.18;;
66425;SDS011;53237;46.158;14.604;2024-03-22T08:09:52;12.30;;;7.20;;
66425;SDS011;53237;46.158;14.604;2024-03-22T08:12:20;9.88;;;6.93;;
66425;SDS011;53237;46.158;14.604;2024-03-22T08:14:46;8.63;;;5.82;;
66425;SDS011;53237;46.158;14.604;2024-03-22T08:17:12;15.52;;;13.15;;
66425;SDS011;53237;46.158;14.604;2024-03-22T08:19:39;17.63;;;9.10;;
66425;SDS011;53237;46.158;14.604;2024-03-22T08:22:05;10.45;;;9.48;;
66425;SDS011;53237;46.158;14.604;2024-03-22T08:24:31;10.20;;;5.55;;
66425;SDS011;53237;46.158;14.604;2024-03-22T08:26:57;8.88;;;5.43;;
66425;SDS011;53237;46.158;14.604;2024-03-22T08:29:23;16.90;;;8.43;;
66425;SDS011;53237;46.158;14.604;2024-03-22T08:31:49;9.77;;;6.25;;
66425;SDS011;53237;46.158;14.604;2024-03-22T08:34:15;9.60;;;5.63;;
66425;SDS011;53237;46.158;14.604;2024-03-22T08:36:41;10.10;;;5.93;;
66425;SDS011;53237;46.158;14.604;2024-03-22T08:39:07;9.40;;;8.60;;
66425;SDS011;53237;46.158;14.604;2024-03-22T08:41:36;9.27;;;5.78;;
66425;SDS011;53237;46.158;14.604;2024-03-22T08:44:02;14.65;;;8.23;;
66425;SDS011;53237;46.158;14.604;2024-03-22T08:46:28;9.65;;;6.82;;
66425;SDS011;53237;46.158;14.604;2024-03-22T08:48:54;13.25;;;11.85;;
66425;SDS011;53237;46.158;14.604;2024-03-22T08:51:21;13.20;;;7.78;;
66425;SDS011;53237;46.158;14.604;2024-03-22T08:53:47;11.63;;;7.00;;
66425;SDS011;53237;46.158;14.604;2024-03-22T08:56:13;11.60;;;10.45;;
66425;SDS011;53237;46.158;14.604;2024-03-22T08:58:39;11.85;;;6.82;;
66425;SDS011;53237;46.158;14.604;2024-03-22T09:01:05;12.38;;;11.07;;
66425;SDS011;53237;46.158;14.604;2024-03-22T09:03:31;12.77;;;11.48;;
66425;SDS011;53237;46.158;14.604;2024-03-22T09:05:57;14.18;;;8.07;;
66425;SDS011;53237;46.158;14.604;2024-03-22T09:08:23;12.98;;;7.57;;
66425;SDS011;53237;46.158;14.604;2024-03-22T09:10:49;14.90;;;12.70;;
66425;SDS011;53237;46.158;14.604;2024-03-22T09:13:15;13.02;;;11.80;;
66425;SDS011;53237;46.158;14.604;2024-03-22T09:15:41;11.90;;;7.70;;
66425;SDS011;53237;46.158;14.604;2024-03-22T09:18:07;13.93;;;8.27;;
66425;SDS011;53237;46.158;14.604;2024-03-22T09:20:33;14.27;;;12.88;;
66425;SDS011;53237;46.158;14.604;2024-03-22T09:22:59;14.25;;;12.95;;
66425;SDS011;53237;46.158;14.604;2024-03-22T09:25:25;14.73;;;13.32;;
66425;SDS011;53237;46.158;14.604;2024-03-22T09:27:51;14.98;;;8.65;;
66425;SDS011;53237;46.158;14.604;2024-03-22T09:30:17;15.30;;;13.77;;
66425;SDS011;53237;46.158;14.604;2024-03-22T09:32:44;14.20;;;12.90;;
66425;SDS011;53237;46.158;14.604;2024-03-22T09:35:10;16.55;;;8.88;;
66425;SDS011;53237;46.158;14.604;2024-03-22T09:37:39;16.25;;;14.65;;
66425;SDS011;53237;46.158;14.604;2024-03-22T09:40:05;18.40;;;9.73;;
66425;SDS011;53237;46.158;14.604;2024-03-22T09:42:32;17.50;;;9.57;;
66425;SDS011;53237;46.158;14.604;2024-03-22T09:44:59;17.08;;;15.38;;
66425;SDS011;53237;46.158;14.604;2024-03-22T09:47:25;17.33;;;15.68;;
66425;SDS011;53237;46.158;14.604;2024-03-22T09:49:52;17.00;;;12.90;;
66425;SDS011;53237;46.158;14.604;2024-03-22T09:52:18;14.30;;;9.60;;
66425;SDS011;53237;46.158;14.604;2024-03-22T09:54:45;17.27;;;15.60;;
66425;SDS011;53237;46.158;14.604;2024-03-22T09:57:13;16.95;;;15.25;;
66425;SDS011;53237;46.158;14.604;2024-03-22T09:59:43;14.27;;;9.57;;
66425;SDS011;53237;46.158;14.604;2024-03-22T10:02:10;15.23;;;13.32;;
66425;SDS011;53237;46.158;14.604;2024-03-22T10:04:37;13.68;;;12.38;;
66425;SDS011;53237;46.158;14.604;2024-03-22T10:07:03;15.35;;;13.93;;
66425;SDS011;53237;46.158;14.604;2024-03-22T10:09:30;15.40;;;13.93;;
66425;SDS011;53237;46.158;14.604;2024-03-22T10:11:56;15.60;;;13.10;;
66425;SDS011;53237;46.158;14.604;2024-03-22T10:14:22;13.02;;;11.73;;
66425;SDS011;53237;46.158;14.604;2024-03-22T10:16:52;12.13;;;11.02;;
66425;SDS011;53237;46.158;14.604;2024-03-22T10:19:22;12.02;;;10.80;;
66425;SDS011;53237;46.158;14.604;2024-03-22T10:22:00;11.82;;;10.63;;
66425;SDS011;53237;46.158;14.604;2024-03-22T10:24:26;11.50;;;10.50;;
66425;SDS011;53237;46.158;14.604;2024-03-22T10:26:52;11.20;;;10.20;;
66425;SDS011;53237;46.158;14.604;2024-03-22T10:29:18;11.15;;;10.15;;
66425;SDS011;53237;46.158;14.604;2024-03-22T10:31:45;13.10;;;11.80;;
66425;SDS011;53237;46.158;14.604;2024-03-22T10:34:12;11.65;;;10.55;;
66425;SDS011;53237;46.158;14.604;2024-03-22T10:36:38;11.30;;;10.23;;
66425;SDS011;53237;46.158;14.604;2024-03-22T10:39:05;12.23;;;11.10;;
66425;SDS011;53237;46.158;14.604;2024-03-22T10:41:31;13.27;;;11.98;;
66425;SDS011;53237;46.158;14.604;2024-03-22T10:43:57;9.82;;;9.02;;
66425;SDS011;53237;46.158;14.604;2024-03-22T10:46:25;9.88;;;8.98;;
66425;SDS011;53237;46.158;14.604;2024-03-22T10:48:54;10.90;;;9.90;;
66425;SDS011;53237;46.158;14.604;2024-03-22T10:51:20;8.90;;;8.10;;
66425;SDS011;53237;46.158;14.604;2024-03-22T10:53:47;8.30;;;7.60;;
66425;SDS011;53237;46.158;14.604;2024-03-22T10:56:14;7.70;;;7.00;;
66425;SDS011;53237;46.158;14.604;2024-03-22T10:58:42;7.20;;;6.60;;
66425;SDS011;53237;46.158;14.604;2024-03-22T11:01:21;7.07;;;6.47;;
66425;SDS011;53237;46.158;14.604;2024-03-22T11:03:47;7.13;;;6.53;;
66425;SDS011;53237;46.158;14.604;2024-03-22T11:06:13;7.30;;;6.60;;
66425;SDS011;53237;46.158;14.604;2024-03-22T11:08:39;6.43;;;5.82;;
66425;SDS011;53237;46.158;14.604;2024-03-22T11:11:09;5.70;;;5.20;;
66425;SDS011;53237;46.158;14.604;2024-03-22T11:13:36;6.35;;;5.75;;
66425;SDS011;53237;46.158;14.604;2024-03-22T11:16:02;4.70;;;4.30;;
66425;SDS011;53237;46.158;14.604;2024-03-22T11:18:28;5.13;;;4.72;;
66425;SDS011;53237;46.158;14.604;2024-03-22T11:20:54;5.88;;;5.38;;
66425;SDS011;53237;46.158;14.604;2024-03-22T11:23:20;6.20;;;5.63;;
66425;SDS011;53237;46.158;14.604;2024-03-22T11:25:46;5.57;;;5.07;;
66425;SDS011;53237;46.158;14.604;2024-03-22T11:28:12;5.13;;;4.70;;
66425;SDS011;53237;46.158;14.604;2024-03-22T11:30:38;5.80;;;5.28;;
66425;SDS011;53237;46.158;14.604;2024-03-22T11:33:04;4.95;;;4.10;;
66425;SDS011;53237;46.158;14.604;2024-03-22T11:35:30;4.10;;;3.80;;
66425;SDS011;53237;46.158;14.604;2024-03-22T11:37:56;3.92;;;3.63;;
66425;SDS011;53237;46.158;14.604;2024-03-22T11:40:23;5.00;;;4.47;;
66425;SDS011;53237;46.158;14.604;2024-03-22T11:42:51;5.22;;;4.82;;
66425;SDS011;53237;46.158;14.604;2024-03-22T11:45:17;4.20;;;3.80;;
66425;SDS011;53237;46.158;14.604;2024-03-22T11:47:44;3.28;;;3.08;;
66425;SDS011;53237;46.158;14.604;2024-03-22T11:50:11;3.80;;;3.47;;
66425;SDS011;53237;46.158;14.604;2024-03-22T11:52:40;3.58;;;3.28;;
66425;SDS011;53237;46.158;14.604;2024-03-22T11:55:06;3.45;;;3.15;;
66425;SDS011;53237;46.158;14.604;2024-03-22T11:57:32;3.72;;;2.90;;
66425;SDS011;53237;46.158;14.604;2024-03-22T11:59:58;3.45;;;3.15;;
66425;SDS011;53237;46.158;14.604;2024-03-22T12:02:25;3.70;;;3.40;;
66425;SDS011;53237;46.158;14.604;2024-03-22T12:04:51;3.00;;;2.70;;
66425;SDS011;53237;46.158;14.604;2024-03-22T12:07:17;3.13;;;2.80;;
66425;SDS011;53237;46.158;14.604;2024-03-22T12:09:43;2.88;;;2.60;;
66425;SDS011;53237;46.158;14.604;2024-03-22T12:12:11;3.13;;;2.85;;
66425;SDS011;53237;46.158;14.604;2024-03-22T12:14:37;3.15;;;2.95;;
66425;SDS011;53237;46.158;14.604;2024-03-22T12:17:04;3.50;;;3.20;;
66425;SDS011;53237;46.158;14.604;2024-03-22T12:19:30;3.08;;;2.85;;
66425;SDS011;53237;46.158;14.604;2024-03-22T12:21:56;2.40;;;2.20;;
66425;SDS011;53237;46.158;14.604;2024-03-22T12:24:22;2.70;;;2.50;;
66425;SDS011;53237;46.158;14.604;2024-03-22T12:26:49;3.10;;;2.80;;
66425;SDS011;53237;46.158;14.604;2024-03-22T12:29:15;3.53;;;3.05;;
66425;SDS011;53237;46.158;14.604;2024-03-22T12:31:41;2.70;;;2.47;;
66425;SDS011;53237;46.158;14.604;2024-03-22T12:34:07;2.90;;;2.35;;
66425;SDS011;53237;46.158;14.604;2024-03-22T12:36:33;2.28;;;2.15;;
66425;SDS011;53237;46.158;14.604;2024-03-22T12:38:59;2.70;;;2.38;;
66425;SDS011;53237;46.158;14.604;2024-03-22T12:41:26;3.40;;;2.40;;
66425;SDS011;53237;46.158;14.604;2024-03-22T12:43:54;2.40;;;2.10;;
66425;SDS011;53237;46.158;14.604;2024-03-22T12:46:20;2.67;;;2.47;;
66425;SDS011;53237;46.158;14.604;2024-03-22T12:48:46;2.00;;;1.90;;
66425;SDS011;53237;46.158;14.604;2024-03-22T12:51:12;2.92;;;2.17;;
66425;SDS011;53237;46.158;14.604;2024-03-22T12:53:38;1.98;;;1.88;;
66425;SDS011;53237;46.158;14.604;2024-03-22T12:56:04;1.92;;;1.70;;
66425;SDS011;53237;46.158;14.604;2024-03-22T12:58:30;1.90;;;1.73;;
66425;SDS011;53237;46.158;14.604;2024-03-22T13:00:57;2.47;;;2.28;;
66425;SDS011;53237;46.158;14.604;2024-03-22T13:03:23;1.90;;;1.80;;
66425;SDS011;53237;46.158;14.604;2024-03-22T13:05:50;2.08;;;1.80;;
66425;SDS011;53237;46.158;14.604;2024-03-22T13:08:16;2.10;;;1.90;;
66425;SDS011;53237;46.158;14.604;2024-03-22T13:10:42;2.35;;;2.15;;
66425;SDS011;53237;46.158;14.604;2024-03-22T13:13:09;2.50;;;2.13;;
66425;SDS011;53237;46.158;14.604;2024-03-22T13:15:36;2.38;;;2.10;;
66425;SDS011;53237;46.158;14.604;2024-03-22T13:18:03;2.50;;;2.30;;
66425;SDS011;53237;46.158;14.604;2024-03-22T13:20:29;2.33;;;2.13;;
66425;SDS011;53237;46.158;14.604;2024-03-22T13:22:55;2.80;;;2.60;;
66425;SDS011;53237;46.158;14.604;2024-03-22T13:25:21;2.55;;;2.35;;
66425;SDS011;53237;46.158;14.604;2024-03-22T13:27:47;2.85;;;2.65;;
66425;SDS011;53237;46.158;14.604;2024-03-22T13:30:13;2.65;;;2.08;;
66425;SDS011;53237;46.158;14.604;2024-03-22T13:32:40;2.28;;;1.85;;
66425;SDS011;53237;46.158;14.604;2024-03-22T13:35:06;2.72;;;2.15;;
66425;SDS011;53237;46.158;14.604;2024-03-22T13:37:32;3.38;;;3.00;;
66425;SDS011;53237;46.158;14.604;2024-03-22T13:39:59;2.78;;;2.47;;
66425;SDS011;53237;46.158;14.604;2024-03-22T13:42:25;2.80;;;2.40;;
66425;SDS011;53237;46.158;14.604;2024-03-22T13:44:51;2.72;;;2.30;;
66425;SDS011;53237;46.158;14.604;2024-03-22T13:47:17;2.25;;;2.10;;
66425;SDS011;53237;46.158;14.604;2024-03-22T13:49:43;2.47;;;2.28;;
66425;SDS011;53237;46.158;14.604;2024-03-22T13:52:10;3.20;;;2.40;;
66425;SDS011;53237;46.158;14.604;2024-03-22T13:54:36;3.80;;;2.63;;
66425;SDS011;53237;46.158;14.604;2024-03-22T13:57:02;2.95;;;2.45;;
66425;SDS011;53237;46.158;14.604;2024-03-22T13:59:28;4.95;;;3.20;;
66425;SDS011;53237;46.158;14.604;2024-03-22T14:01:55;2.80;;;2.50;;
66425;SDS011;53237;46.158;14.604;2024-03-22T14:04:21;3.58;;;3.28;;
66425;SDS011;53237;46.158;14.604;2024-03-22T14:06:48;3.05;;;2.40;;
66425;SDS011;53237;46.158;14.604;2024-03-22T14:09:14;3.42;;;3.13;;
66425;SDS011;53237;46.158;14.604;2024-03-22T14:11:40;3.85;;;3.10;;
66425;SDS011;53237;46.158;14.604;2024-03-22T14:14:08;3.15;;;2.85;;
66425;SDS011;53237;46.158;14.604;2024-03-22T14:16:36;3.13;;;2.83;;
66425;SDS011;53237;46.158;14.604;2024-03-22T14:19:02;2.70;;;2.50;;
66425;SDS011;53237;46.158;14.604;2024-03-22T14:21:28;2.83;;;2.10;;
66425;SDS011;53237;46.158;14.604;2024-03-22T14:23:55;2.25;;;2.13;;
66425;SDS011;53237;46.158;14.604;2024-03-22T14:26:21;2.65;;;2.17;;